Time,TemperatureF,DewpointF,PressureIn,WindDirection,WindDirectionDegrees,WindSpeedMPH,WindSpeedGustMPH,Humidity,HourlyPrecipIn,Conditions,Clouds,dailyrainin,SoftwareType,DateUTC
2013-05-14 00:00:00,65.0,55.4,29.89,North,0,0.0,0.0,71,0.00,,,0.00,WUHU216HW,2013-05-14 05:00:00,
2013-05-14 00:05:00,65.0,55.4,29.89,North,0,0.0,0.0,71,0.00,,,0.00,WUHU216HW,2013-05-14 05:05:00,
2013-05-14 00:30:00,64.8,55.3,29.88,North,0,0.0,0.0,71,0.00,,,0.00,WUHU216HW,2013-05-14 05:30:00,
2013-05-14 00:35:00,64.8,55.3,29.88,North,0,0.0,0.0,71,0.00,,,0.00,WUHU216HW,2013-05-14 05:35:00,
2013-05-14 00:59:00,65.2,55.5,29.88,North,0,0.0,0.0,71,0.00,,,0.00,WUHU216HW,2013-05-14 05:59:00,
2013-05-14 01:04:00,65.2,55.5,29.88,North,0,0.0,0.0,71,0.00,,,0.00,WUHU216HW,2013-05-14 06:04:00,
2013-05-14 01:29:00,65.2,55.2,29.86,North,0,0.0,0.0,70,0.00,,,0.00,WUHU216HW,2013-05-14 06:29:00,
2013-05-14 01:34:00,65.2,55.2,29.86,North,0,0.0,0.0,70,0.00,,,0.00,WUHU216HW,2013-05-14 06:34:00,
2013-05-14 01:59:00,65.0,55.0,29.85,North,0,0.0,0.0,70,0.00,,,0.00,WUHU216HW,2013-05-14 06:59:00,
2013-05-14 02:04:00,65.0,55.0,29.85,North,0,0.0,0.0,70,0.00,,,0.00,WUHU216HW,2013-05-14 07:04:00,
2013-05-14 02:29:00,64.8,54.9,29.85,North,0,0.0,0.0,70,0.00,,,0.00,WUHU216HW,2013-05-14 07:29:00,
2013-05-14 02:34:00,64.8,54.9,29.85,North,0,0.0,0.0,70,0.00,,,0.00,WUHU216HW,2013-05-14 07:34:00,
2013-05-14 02:59:00,64.4,54.9,29.84,North,0,0.0,0.0,71,0.00,,,0.00,WUHU216HW,2013-05-14 07:59:00,
2013-05-14 03:04:00,64.4,54.9,29.84,North,0,0.0,0.0,71,0.00,,,0.00,WUHU216HW,2013-05-14 08:04:00,
2013-05-14 03:29:00,64.4,54.9,29.83,North,0,0.0,0.0,71,0.00,,,0.00,WUHU216HW,2013-05-14 08:29:00,
2013-05-14 03:34:00,64.4,54.9,29.83,North,0,0.0,0.0,71,0.00,,,0.00,WUHU216HW,2013-05-14 08:34:00,
2013-05-14 03:59:00,63.9,54.7,29.83,North,0,0.0,0.0,72,0.00,,,0.00,WUHU216HW,2013-05-14 08:59:00,
2013-05-14 04:04:00,63.9,54.7,29.83,North,0,0.0,0.0,72,0.00,,,0.00,WUHU216HW,2013-05-14 09:04:00,
2013-05-14 04:29:00,63.5,54.7,29.82,North,0,0.0,0.0,73,0.00,,,0.00,WUHU216HW,2013-05-14 09:29:00,
2013-05-14 04:34:00,63.5,54.7,29.82,North,0,0.0,0.0,73,0.00,,,0.00,WUHU216HW,2013-05-14 09:34:00,
2013-05-14 04:59:00,63.9,54.7,29.82,North,0,0.0,0.0,72,0.00,,,0.00,WUHU216HW,2013-05-14 09:59:00,
2013-05-14 05:04:00,63.9,54.7,29.82,North,0,0.0,0.0,72,0.00,,,0.00,WUHU216HW,2013-05-14 10:04:00,
2013-05-14 05:29:00,63.7,54.2,29.83,North,0,0.0,0.0,71,0.00,,,0.00,WUHU216HW,2013-05-14 10:29:00,
2013-05-14 05:35:00,63.7,54.2,29.83,North,0,0.0,0.0,71,0.00,,,0.00,WUHU216HW,2013-05-14 10:35:00,
2013-05-14 05:59:00,63.0,53.8,29.84,North,0,0.0,0.0,72,0.00,,,0.00,WUHU216HW,2013-05-14 10:59:00,
2013-05-14 06:04:00,63.0,53.8,29.84,North,0,0.0,0.0,72,0.00,,,0.00,WUHU216HW,2013-05-14 11:04:00,
2013-05-14 06:29:00,62.6,53.8,29.84,North,0,0.0,0.0,73,0.00,,,0.00,WUHU216HW,2013-05-14 11:29:00,
2013-05-14 06:35:00,62.6,53.8,29.84,North,0,0.0,0.0,73,0.00,,,0.00,WUHU216HW,2013-05-14 11:35:00,
2013-05-14 06:59:00,62.6,53.5,29.84,North,0,0.0,0.0,72,0.00,,,0.00,WUHU216HW,2013-05-14 11:59:00,
2013-05-14 07:04:00,62.6,53.5,29.84,North,0,0.0,0.0,72,0.00,,,0.00,WUHU216HW,2013-05-14 12:04:00,
2013-05-14 07:29:00,63.9,54.0,29.84,North,0,0.0,0.0,70,0.00,,,0.00,WUHU216HW,2013-05-14 12:29:00,
2013-05-14 07:34:00,63.9,54.0,29.84,North,0,0.0,0.0,70,0.00,,,0.00,WUHU216HW,2013-05-14 12:34:00,
2013-05-14 07:59:00,65.5,54.3,29.84,North,0,0.0,0.0,67,0.00,,,0.00,WUHU216HW,2013-05-14 12:59:00,
2013-05-14 08:04:00,65.5,54.3,29.84,North,0,0.0,0.0,67,0.00,,,0.00,WUHU216HW,2013-05-14 13:04:00,
2013-05-14 08:30:00,67.9,55.2,29.84,North,0,0.0,0.0,64,0.00,,,0.00,WUHU216HW,2013-05-14 13:30:00,
2013-05-14 08:34:00,67.9,55.2,29.84,North,0,0.0,0.0,64,0.00,,,0.00,WUHU216HW,2013-05-14 13:34:00,
2013-05-14 08:59:00,70.2,54.7,29.84,North,0,0.0,0.0,58,0.00,,,0.00,WUHU216HW,2013-05-14 13:59:00,
2013-05-14 09:04:00,70.2,54.7,29.84,North,0,0.0,0.0,58,0.00,,,0.00,WUHU216HW,2013-05-14 14:04:00,
2013-05-14 09:30:00,72.5,55.9,29.84,North,0,0.0,0.0,56,0.00,,,0.00,WUHU216HW,2013-05-14 14:30:00,
2013-05-14 09:35:00,72.5,55.9,29.84,North,0,0.0,0.0,56,0.00,,,0.00,WUHU216HW,2013-05-14 14:35:00,
2013-05-14 09:59:00,75.2,56.4,29.84,North,0,0.0,0.0,52,0.00,,,0.00,WUHU216HW,2013-05-14 14:59:00,
2013-05-14 10:04:00,75.2,56.4,29.84,North,0,0.0,0.0,52,0.00,,,0.00,WUHU216HW,2013-05-14 15:04:00,
2013-05-14 10:29:00,77.9,56.1,29.84,North,0,0.0,0.0,47,0.00,,,0.00,WUHU216HW,2013-05-14 15:29:00,
2013-05-14 10:34:00,77.9,56.1,29.84,North,0,0.0,0.0,47,0.00,,,0.00,WUHU216HW,2013-05-14 15:34:00,
2013-05-14 10:59:00,79.9,56.0,29.84,North,0,0.0,0.0,44,0.00,,,0.00,WUHU216HW,2013-05-14 15:59:00,
2013-05-14 11:04:00,79.9,56.0,29.84,North,0,0.0,0.0,44,0.00,,,0.00,WUHU216HW,2013-05-14 16:04:00,
2013-05-14 11:29:00,82.3,56.3,29.84,North,0,0.0,0.0,41,0.00,,,0.00,WUHU216HW,2013-05-14 16:29:00,
2013-05-14 11:34:00,82.3,56.3,29.84,North,0,0.0,0.0,41,0.00,,,0.00,WUHU216HW,2013-05-14 16:34:00,
2013-05-14 12:00:00,83.9,55.5,29.84,North,0,0.0,0.0,38,0.00,,,0.00,WUHU216HW,2013-05-14 17:00:00,
2013-05-14 12:05:00,83.9,55.5,29.84,North,0,0.0,0.0,38,0.00,,,0.00,WUHU216HW,2013-05-14 17:05:00,
2013-05-14 12:30:00,86.8,57.3,29.83,North,0,0.0,0.0,37,0.00,,,0.00,WUHU216HW,2013-05-14 17:30:00,
2013-05-14 12:35:00,86.8,57.3,29.83,North,0,0.0,0.0,37,0.00,,,0.00,WUHU216HW,2013-05-14 17:35:00,
2013-05-14 12:59:00,88.4,57.1,29.82,North,0,0.0,0.0,35,0.00,,,0.00,WUHU216HW,2013-05-14 17:59:00,
2013-05-14 13:04:00,88.4,57.1,29.82,North,0,0.0,0.0,35,0.00,,,0.00,WUHU216HW,2013-05-14 18:04:00,
2013-05-14 13:29:00,89.5,56.4,29.81,North,0,0.0,0.0,33,0.00,,,0.00,WUHU216HW,2013-05-14 18:29:00,
2013-05-14 13:34:00,89.5,56.4,29.81,North,0,0.0,0.0,33,0.00,,,0.00,WUHU216HW,2013-05-14 18:34:00,
2013-05-14 13:59:00,91.1,57.1,29.80,North,0,0.0,0.0,32,0.00,,,0.00,WUHU216HW,2013-05-14 18:59:00,
2013-05-14 14:04:00,91.1,57.1,29.80,North,0,0.0,0.0,32,0.00,,,0.00,WUHU216HW,2013-05-14 19:04:00,
2013-05-14 14:29:00,91.8,57.7,29.80,North,0,0.0,0.0,32,0.00,,,0.00,WUHU216HW,2013-05-14 19:29:00,
2013-05-14 14:34:00,91.8,57.7,29.80,North,0,0.0,0.0,32,0.00,,,0.00,WUHU216HW,2013-05-14 19:34:00,
2013-05-14 14:59:00,93.1,57.1,29.79,North,0,0.0,0.0,30,0.00,,,0.00,WUHU216HW,2013-05-14 19:59:00,
2013-05-14 15:04:00,93.1,57.1,29.79,North,0,0.0,0.0,30,0.00,,,0.00,WUHU216HW,2013-05-14 20:04:00,
2013-05-14 15:29:00,93.1,53.8,29.79,South,180,4.0,4.0,27,0.00,,,0.00,WUHU216HW,2013-05-14 20:29:00,
2013-05-14 15:34:00,93.1,53.8,29.79,South,180,4.0,4.0,27,0.00,,,0.00,WUHU216HW,2013-05-14 20:34:00,
2013-05-14 15:59:00,92.9,52.6,29.79,North,0,0.0,0.0,26,0.00,,,0.00,WUHU216HW,2013-05-14 20:59:00,
2013-05-14 16:04:00,92.9,52.6,29.79,North,0,0.0,0.0,26,0.00,,,0.00,WUHU216HW,2013-05-14 21:04:00,
2013-05-14 16:29:00,91.1,54.4,29.79,North,0,0.0,0.0,29,0.00,,,0.00,WUHU216HW,2013-05-14 21:29:00,
2013-05-14 16:34:00,91.1,54.4,29.79,North,0,0.0,0.0,29,0.00,,,0.00,WUHU216HW,2013-05-14 21:34:00,
2013-05-14 16:59:00,90.2,51.4,29.78,SE,135,2.7,2.7,27,0.00,,,0.00,WUHU216HW,2013-05-14 21:59:00,
2013-05-14 17:04:00,90.2,51.4,29.78,SE,135,2.7,2.7,27,0.00,,,0.00,WUHU216HW,2013-05-14 22:04:00,
2013-05-14 17:09:00,90.2,51.4,29.78,SE,135,2.7,2.7,27,0.00,,,0.00,WUHU216HW,2013-05-14 22:09:00,
2013-05-14 17:29:00,89.5,51.8,29.78,North,0,0.0,0.0,28,0.00,,,0.00,WUHU216HW,2013-05-14 22:29:00,
2013-05-14 17:34:00,89.5,51.8,29.78,North,0,0.0,0.0,28,0.00,,,0.00,WUHU216HW,2013-05-14 22:34:00,
2013-05-14 17:59:00,88.0,52.8,29.77,North,0,0.0,0.0,30,0.00,,,0.00,WUHU216HW,2013-05-14 22:59:00,
2013-05-14 18:04:00,88.0,52.8,29.77,North,0,0.0,0.0,30,0.00,,,0.00,WUHU216HW,2013-05-14 23:04:00,
2013-05-14 18:29:00,86.8,50.6,29.76,SSW,203,2.2,2.2,29,0.00,,,0.00,WUHU216HW,2013-05-14 23:29:00,
2013-05-14 18:34:00,86.8,50.6,29.76,SSW,203,2.2,2.2,29,0.00,,,0.00,WUHU216HW,2013-05-14 23:34:00,
2013-05-14 18:59:00,85.3,50.5,29.76,ESE,113,3.8,3.8,30,0.00,,,0.00,WUHU216HW,2013-05-14 23:59:00,
2013-05-14 19:04:00,85.3,50.5,29.76,ESE,113,3.8,3.8,30,0.00,,,0.00,WUHU216HW,2013-05-15 00:04:00,
2013-05-14 19:29:00,83.7,49.1,29.77,SSW,203,3.8,3.8,30,0.00,,,0.00,WUHU216HW,2013-05-15 00:29:00,
2013-05-14 19:34:00,83.7,49.1,29.77,SSW,203,3.8,3.8,30,0.00,,,0.00,WUHU216HW,2013-05-15 00:34:00,
2013-05-14 19:59:00,82.3,49.3,29.78,North,0,0.0,0.0,32,0.00,,,0.00,WUHU216HW,2013-05-15 00:59:00,
2013-05-14 20:04:00,82.3,49.3,29.78,North,0,0.0,0.0,32,0.00,,,0.00,WUHU216HW,2013-05-15 01:04:00,
2013-05-14 20:29:00,80.1,49.1,29.78,North,0,0.0,0.0,34,0.00,,,0.00,WUHU216HW,2013-05-15 01:29:00,
2013-05-14 20:34:00,80.1,49.1,29.78,North,0,0.0,0.0,34,0.00,,,0.00,WUHU216HW,2013-05-15 01:34:00,
2013-05-14 20:59:00,78.5,50.0,29.78,North,0,0.0,0.0,37,0.00,,,0.00,WUHU216HW,2013-05-15 01:59:00,
2013-05-14 21:04:00,78.5,50.0,29.78,North,0,0.0,0.0,37,0.00,,,0.00,WUHU216HW,2013-05-15 02:04:00,
2013-05-14 21:29:00,76.3,50.3,29.80,North,0,0.0,0.0,40,0.00,,,0.00,WUHU216HW,2013-05-15 02:29:00,
2013-05-14 21:34:00,76.3,50.3,29.80,North,0,0.0,0.0,40,0.00,,,0.00,WUHU216HW,2013-05-15 02:34:00,
2013-05-14 21:59:00,74.5,50.5,29.81,North,0,0.0,0.0,43,0.00,,,0.00,WUHU216HW,2013-05-15 02:59:00,
2013-05-14 22:04:00,74.5,50.5,29.81,North,0,0.0,0.0,43,0.00,,,0.00,WUHU216HW,2013-05-15 03:04:00,
2013-05-14 22:29:00,73.8,52.2,29.81,North,0,0.0,0.0,47,0.00,,,0.00,WUHU216HW,2013-05-15 03:29:00,
2013-05-14 22:34:00,73.8,52.2,29.81,North,0,0.0,0.0,47,0.00,,,0.00,WUHU216HW,2013-05-15 03:34:00,
2013-05-14 22:59:00,73.1,53.3,29.81,North,0,0.0,0.0,50,0.00,,,0.00,WUHU216HW,2013-05-15 03:59:00,
2013-05-14 23:01:00,73.1,53.3,29.81,North,0,0.0,0.0,50,0.00,,,0.00,WUHU216HW,2013-05-15 04:01:00,
2013-05-14 23:06:00,73.1,53.3,29.81,North,0,0.0,0.0,50,0.00,,,0.00,WUHU216HW,2013-05-15 04:06:00,
2013-05-14 23:29:00,72.4,54.7,29.81,North,0,0.0,0.0,54,0.00,,,0.00,WUHU216HW,2013-05-15 04:29:00,
2013-05-14 23:34:00,72.4,54.7,29.81,North,0,0.0,0.0,54,0.00,,,0.00,WUHU216HW,2013-05-15 04:34:00,
2013-05-14 23:59:00,71.6,56.1,29.81,North,0,0.0,0.0,58,0.00,,,0.00,WUHU216HW,2013-05-15 04:59:00,